sensor_id;sensor_type;location;lat;lon;timestamp;P1;durP1;ratioP1;P2;durP2;ratioP2
39370;SDS011;25099;51.946;4.838;2022-09-02T00:00:55;2.30;;;1.52;;
39370;SDS011;25099;51.946;4.838;2022-09-02T00:03:28;2.55;;;0.98;;
39370;SDS011;25099;51.946;4.838;2022-09-02T00:05:56;0.80;;;0.75;;
39370;SDS011;25099;51.946;4.838;2022-09-02T00:08:21;1.52;;;1.30;;
39370;SDS011;25099;51.946;4.838;2022-09-02T00:10:47;4.85;;;1.13;;
39370;SDS011;25099;51.946;4.838;2022-09-02T00:13:14;1.83;;;1.00;;
39370;SDS011;25099;51.946;4.838;2022-09-02T00:15:43;0.98;;;0.82;;
39370;SDS011;25099;51.946;4.838;2022-09-02T00:18:09;1.20;;;1.10;;
39370;SDS011;25099;51.946;4.838;2022-09-02T00:20:38;1.65;;;0.80;;
39370;SDS011;25099;51.946;4.838;2022-09-02T00:23:05;2.17;;;1.30;;
39370;SDS011;25099;51.946;4.838;2022-09-02T00:25:32;1.20;;;1.10;;
39370;SDS011;25099;51.946;4.838;2022-09-02T00:27:59;1.60;;;1.10;;
39370;SDS011;25099;51.946;4.838;2022-09-02T00:30:25;3.47;;;1.17;;
39370;SDS011;25099;51.946;4.838;2022-09-02T00:32:51;0.82;;;0.82;;
39370;SDS011;25099;51.946;4.838;2022-09-02T00:35:18;1.45;;;0.98;;
39370;SDS011;25099;51.946;4.838;2022-09-02T00:37:44;1.30;;;1.00;;
39370;SDS011;25099;51.946;4.838;2022-09-02T00:40:10;1.20;;;0.80;;
39370;SDS011;25099;51.946;4.838;2022-09-02T00:42:36;5.93;;;0.80;;
39370;SDS011;25099;51.946;4.838;2022-09-02T00:45:02;1.65;;;0.82;;
39370;SDS011;25099;51.946;4.838;2022-09-02T00:47:30;3.65;;;1.10;;
39370;SDS011;25099;51.946;4.838;2022-09-02T00:49:57;1.02;;;0.70;;
39370;SDS011;25099;51.946;4.838;2022-09-02T00:52:25;1.52;;;1.00;;
39370;SDS011;25099;51.946;4.838;2022-09-02T00:54:58;0.80;;;0.77;;
39370;SDS011;25099;51.946;4.838;2022-09-02T00:57:28;2.15;;;0.80;;
39370;SDS011;25099;51.946;4.838;2022-09-02T01:00:03;1.38;;;0.90;;
39370;SDS011;25099;51.946;4.838;2022-09-02T01:02:38;1.27;;;0.90;;
39370;SDS011;25099;51.946;4.838;2022-09-02T01:05:07;6.10;;;1.10;;
39370;SDS011;25099;51.946;4.838;2022-09-02T01:07:35;2.10;;;0.98;;
39370;SDS011;25099;51.946;4.838;2022-09-02T01:10:06;1.60;;;0.93;;
39370;SDS011;25099;51.946;4.838;2022-09-02T01:12:35;1.65;;;0.80;;
39370;SDS011;25099;51.946;4.838;2022-09-02T01:15:03;1.45;;;0.80;;
39370;SDS011;25099;51.946;4.838;2022-09-02T01:17:31;4.38;;;1.40;;
39370;SDS011;25099;51.946;4.838;2022-09-02T01:20:03;1.88;;;0.90;;
39370;SDS011;25099;51.946;4.838;2022-09-02T01:22:32;0.93;;;0.93;;
39370;SDS011;25099;51.946;4.838;2022-09-02T01:25:06;2.40;;;0.80;;
39370;SDS011;25099;51.946;4.838;2022-09-02T01:27:34;1.30;;;1.08;;
39370;SDS011;25099;51.946;4.838;2022-09-02T01:30:04;3.85;;;1.88;;
39370;SDS011;25099;51.946;4.838;2022-09-02T01:32:32;0.65;;;0.60;;
39370;SDS011;25099;51.946;4.838;2022-09-02T01:34:57;1.65;;;0.82;;
39370;SDS011;25099;51.946;4.838;2022-09-02T01:37:23;5.10;;;0.73;;
39370;SDS011;25099;51.946;4.838;2022-09-02T01:39:49;2.03;;;1.15;;
39370;SDS011;25099;51.946;4.838;2022-09-02T01:42:16;0.77;;;0.77;;
39370;SDS011;25099;51.946;4.838;2022-09-02T01:44:43;2.97;;;0.90;;
39370;SDS011;25099;51.946;4.838;2022-09-02T01:47:12;2.42;;;1.08;;
39370;SDS011;25099;51.946;4.838;2022-09-02T01:49:40;1.95;;;0.80;;
39370;SDS011;25099;51.946;4.838;2022-09-02T01:52:06;1.50;;;1.00;;
39370;SDS011;25099;51.946;4.838;2022-09-02T01:54:34;1.90;;;1.02;;
39370;SDS011;25099;51.946;4.838;2022-09-02T01:57:00;0.80;;;0.80;;
39370;SDS011;25099;51.946;4.838;2022-09-02T01:59:25;1.88;;;1.10;;
39370;SDS011;25099;51.946;4.838;2022-09-02T02:01:51;1.13;;;0.80;;
39370;SDS011;25099;51.946;4.838;2022-09-02T02:04:17;2.20;;;0.70;;
39370;SDS011;25099;51.946;4.838;2022-09-02T02:06:43;1.08;;;0.93;;
39370;SDS011;25099;51.946;4.838;2022-09-02T02:09:10;0.80;;;0.80;;
39370;SDS011;25099;51.946;4.838;2022-09-02T02:11:36;1.27;;;0.70;;
39370;SDS011;25099;51.946;4.838;2022-09-02T02:14:02;1.05;;;0.80;;
39370;SDS011;25099;51.946;4.838;2022-09-02T02:16:28;0.70;;;0.70;;
39370;SDS011;25099;51.946;4.838;2022-09-02T02:18:54;3.58;;;1.23;;
39370;SDS011;25099;51.946;4.838;2022-09-02T02:21:19;3.20;;;1.08;;
39370;SDS011;25099;51.946;4.838;2022-09-02T02:23:45;2.55;;;0.82;;
39370;SDS011;25099;51.946;4.838;2022-09-02T02:26:11;1.48;;;0.98;;
39370;SDS011;25099;51.946;4.838;2022-09-02T02:28:36;2.00;;;0.93;;
39370;SDS011;25099;51.946;4.838;2022-09-02T02:31:02;1.58;;;0.85;;
39370;SDS011;25099;51.946;4.838;2022-09-02T02:33:30;2.25;;;0.80;;
39370;SDS011;25099;51.946;4.838;2022-09-02T02:35:56;6.05;;;0.93;;
39370;SDS011;25099;51.946;4.838;2022-09-02T02:38:22;2.58;;;1.10;;
39370;SDS011;25099;51.946;4.838;2022-09-02T02:40:48;1.02;;;0.90;;
39370;SDS011;25099;51.946;4.838;2022-09-02T02:43:15;2.30;;;0.88;;
39370;SDS011;25099;51.946;4.838;2022-09-02T02:45:41;1.92;;;1.02;;
39370;SDS011;25099;51.946;4.838;2022-09-02T02:48:06;1.92;;;0.93;;
39370;SDS011;25099;51.946;4.838;2022-09-02T02:50:32;3.65;;;0.90;;
39370;SDS011;25099;51.946;4.838;2022-09-02T02:53:07;1.83;;;0.80;;
39370;SDS011;25099;51.946;4.838;2022-09-02T02:55:33;0.80;;;0.80;;
39370;SDS011;25099;51.946;4.838;2022-09-02T02:58:01;2.53;;;0.80;;
39370;SDS011;25099;51.946;4.838;2022-09-02T03:00:28;1.20;;;0.82;;
39370;SDS011;25099;51.946;4.838;2022-09-02T03:02:57;1.08;;;0.90;;
39370;SDS011;25099;51.946;4.838;2022-09-02T03:05:25;2.70;;;1.00;;
39370;SDS011;25099;51.946;4.838;2022-09-02T03:07:51;1.83;;;1.02;;
39370;SDS011;25099;51.946;4.838;2022-09-02T03:10:17;2.30;;;0.93;;
39370;SDS011;25099;51.946;4.838;2022-09-02T03:12:44;0.80;;;0.80;;
39370;SDS011;25099;51.946;4.838;2022-09-02T03:15:12;1.92;;;0.70;;
39370;SDS011;25099;51.946;4.838;2022-09-02T03:17:41;1.20;;;0.98;;
39370;SDS011;25099;51.946;4.838;2022-09-02T03:20:07;1.42;;;0.90;;
39370;SDS011;25099;51.946;4.838;2022-09-02T03:22:33;0.70;;;0.70;;
39370;SDS011;25099;51.946;4.838;2022-09-02T03:25:03;3.83;;;0.90;;
39370;SDS011;25099;51.946;4.838;2022-09-02T03:27:32;2.25;;;0.80;;
39370;SDS011;25099;51.946;4.838;2022-09-02T03:29:58;6.47;;;1.25;;
39370;SDS011;25099;51.946;4.838;2022-09-02T03:32:26;1.63;;;0.73;;
39370;SDS011;25099;51.946;4.838;2022-09-02T03:34:52;5.35;;;0.80;;
39370;SDS011;25099;51.946;4.838;2022-09-02T03:37:18;1.70;;;0.90;;
39370;SDS011;25099;51.946;4.838;2022-09-02T03:39:44;0.80;;;0.80;;
39370;SDS011;25099;51.946;4.838;2022-09-02T03:42:10;1.40;;;0.82;;
39370;SDS011;25099;51.946;4.838;2022-09-02T03:44:36;2.35;;;0.80;;
39370;SDS011;25099;51.946;4.838;2022-09-02T03:47:04;0.82;;;0.82;;
39370;SDS011;25099;51.946;4.838;2022-09-02T03:49:30;1.30;;;0.90;;
39370;SDS011;25099;51.946;4.838;2022-09-02T03:51:55;1.10;;;1.00;;
39370;SDS011;25099;51.946;4.838;2022-09-02T03:54:21;2.05;;;1.20;;
39370;SDS011;25099;51.946;4.838;2022-09-02T03:56:47;1.50;;;1.15;;
39370;SDS011;25099;51.946;4.838;2022-09-02T03:59:12;1.38;;;0.95;;
39370;SDS011;25099;51.946;4.838;2022-09-02T04:01:38;1.92;;;1.02;;
39370;SDS011;25099;51.946;4.838;2022-09-02T04:04:04;1.58;;;0.90;;
39370;SDS011;25099;51.946;4.838;2022-09-02T04:06:30;1.27;;;1.10;;
39370;SDS011;25099;51.946;4.838;2022-09-02T04:08:56;1.02;;;0.80;;
39370;SDS011;25099;51.946;4.838;2022-09-02T04:11:22;2.75;;;1.23;;
39370;SDS011;25099;51.946;4.838;2022-09-02T04:13:48;1.02;;;0.90;;
39370;SDS011;25099;51.946;4.838;2022-09-02T04:16:17;2.75;;;0.80;;
39370;SDS011;25099;51.946;4.838;2022-09-02T04:18:44;1.55;;;0.93;;
39370;SDS011;25099;51.946;4.838;2022-09-02T04:21:10;3.28;;;1.00;;
39370;SDS011;25099;51.946;4.838;2022-09-02T04:23:36;2.05;;;0.90;;
39370;SDS011;25099;51.946;4.838;2022-09-02T04:26:06;1.52;;;0.90;;
39370;SDS011;25099;51.946;4.838;2022-09-02T04:28:34;4.00;;;1.35;;
39370;SDS011;25099;51.946;4.838;2022-09-02T04:31:08;1.45;;;1.00;;
39370;SDS011;25099;51.946;4.838;2022-09-02T04:33:35;4.28;;;1.05;;
39370;SDS011;25099;51.946;4.838;2022-09-02T04:36:05;2.63;;;1.00;;
39370;SDS011;25099;51.946;4.838;2022-09-02T04:40:57;1.45;;;1.13;;
39370;SDS011;25099;51.946;4.838;2022-09-02T04:43:23;3.47;;;1.20;;
39370;SDS011;25099;51.946;4.838;2022-09-02T04:45:49;1.50;;;0.90;;
39370;SDS011;25099;51.946;4.838;2022-09-02T04:48:16;3.65;;;1.20;;
39370;SDS011;25099;51.946;4.838;2022-09-02T04:50:43;3.72;;;0.80;;
39370;SDS011;25099;51.946;4.838;2022-09-02T04:53:10;4.28;;;1.20;;
39370;SDS011;25099;51.946;4.838;2022-09-02T04:55:39;2.17;;;1.05;;
39370;SDS011;25099;51.946;4.838;2022-09-02T04:58:06;3.25;;;1.17;;
39370;SDS011;25099;51.946;4.838;2022-09-02T05:00:32;5.25;;;1.33;;
39370;SDS011;25099;51.946;4.838;2022-09-02T05:02:58;2.65;;;1.20;;
39370;SDS011;25099;51.946;4.838;2022-09-02T05:05:24;2.47;;;0.85;;
39370;SDS011;25099;51.946;4.838;2022-09-02T05:07:49;2.53;;;1.00;;
39370;SDS011;25099;51.946;4.838;2022-09-02T05:10:20;1.15;;;1.00;;
39370;SDS011;25099;51.946;4.838;2022-09-02T05:12:45;1.90;;;0.90;;
39370;SDS011;25099;51.946;4.838;2022-09-02T05:15:11;2.53;;;0.98;;
39370;SDS011;25099;51.946;4.838;2022-09-02T05:17:37;1.92;;;1.10;;
39370;SDS011;25099;51.946;4.838;2022-09-02T05:20:06;0.80;;;0.80;;
39370;SDS011;25099;51.946;4.838;2022-09-02T05:22:33;2.08;;;1.23;;
39370;SDS011;25099;51.946;4.838;2022-09-02T05:25:00;4.18;;;1.30;;
39370;SDS011;25099;51.946;4.838;2022-09-02T05:27:26;3.70;;;1.27;;
39370;SDS011;25099;51.946;4.838;2022-09-02T05:29:55;7.28;;;1.25;;
39370;SDS011;25099;51.946;4.838;2022-09-02T05:32:23;2.85;;;1.20;;
39370;SDS011;25099;51.946;4.838;2022-09-02T05:34:50;5.00;;;1.55;;
39370;SDS011;25099;51.946;4.838;2022-09-02T05:37:15;2.30;;;0.98;;
39370;SDS011;25099;51.946;4.838;2022-09-02T05:39:41;4.40;;;1.10;;
39370;SDS011;25099;51.946;4.838;2022-09-02T05:42:07;2.67;;;1.20;;
39370;SDS011;25099;51.946;4.838;2022-09-02T05:44:32;2.85;;;1.13;;
39370;SDS011;25099;51.946;4.838;2022-09-02T05:46:59;1.42;;;1.20;;
39370;SDS011;25099;51.946;4.838;2022-09-02T05:49:25;1.45;;;1.10;;
39370;SDS011;25099;51.946;4.838;2022-09-02T05:51:52;2.50;;;1.20;;
39370;SDS011;25099;51.946;4.838;2022-09-02T05:54:38;6.00;;;1.25;;
39370;SDS011;25099;51.946;4.838;2022-09-02T05:57:05;3.83;;;1.40;;
39370;SDS011;25099;51.946;4.838;2022-09-02T05:59:33;2.17;;;1.40;;
39370;SDS011;25099;51.946;4.838;2022-09-02T06:02:00;5.03;;;1.20;;
39370;SDS011;25099;51.946;4.838;2022-09-02T06:04:26;1.52;;;1.25;;
39370;SDS011;25099;51.946;4.838;2022-09-02T06:06:52;3.65;;;1.45;;
39370;SDS011;25099;51.946;4.838;2022-09-02T06:09:21;1.05;;;1.05;;
39370;SDS011;25099;51.946;4.838;2022-09-02T06:11:47;3.88;;;1.27;;
39370;SDS011;25099;51.946;4.838;2022-09-02T06:14:14;1.98;;;1.20;;
39370;SDS011;25099;51.946;4.838;2022-09-02T06:16:43;4.55;;;1.40;;
39370;SDS011;25099;51.946;4.838;2022-09-02T06:19:09;3.28;;;1.10;;
39370;SDS011;25099;51.946;4.838;2022-09-02T06:21:35;1.77;;;1.33;;
39370;SDS011;25099;51.946;4.838;2022-09-02T06:24:06;2.28;;;1.25;;
39370;SDS011;25099;51.946;4.838;2022-09-02T06:26:33;2.97;;;1.30;;
39370;SDS011;25099;51.946;4.838;2022-09-02T06:28:59;1.58;;;1.48;;
39370;SDS011;25099;51.946;4.838;2022-09-02T06:31:26;4.32;;;1.50;;
39370;SDS011;25099;51.946;4.838;2022-09-02T06:33:52;6.22;;;1.60;;
39370;SDS011;25099;51.946;4.838;2022-09-02T06:36:20;1.95;;;1.38;;
39370;SDS011;25099;51.946;4.838;2022-09-02T06:38:48;2.90;;;2.10;;
39370;SDS011;25099;51.946;4.838;2022-09-02T06:41:17;4.30;;;1.45;;
39370;SDS011;25099;51.946;4.838;2022-09-02T06:43:47;2.50;;;1.20;;
39370;SDS011;25099;51.946;4.838;2022-09-02T06:46:15;2.88;;;1.65;;
39370;SDS011;25099;51.946;4.838;2022-09-02T06:48:42;5.72;;;1.77;;
39370;SDS011;25099;51.946;4.838;2022-09-02T06:51:14;1.83;;;1.30;;
39370;SDS011;25099;51.946;4.838;2022-09-02T06:53:41;4.63;;;1.90;;
39370;SDS011;25099;51.946;4.838;2022-09-02T06:56:07;4.78;;;1.80;;
39370;SDS011;25099;51.946;4.838;2022-09-02T06:58:32;2.38;;;1.85;;
39370;SDS011;25099;51.946;4.838;2022-09-02T07:00:58;3.28;;;1.73;;
39370;SDS011;25099;51.946;4.838;2022-09-02T07:03:23;4.72;;;1.58;;
39370;SDS011;25099;51.946;4.838;2022-09-02T07:06:09;2.70;;;1.52;;
39370;SDS011;25099;51.946;4.838;2022-09-02T07:08:39;2.92;;;1.70;;
39370;SDS011;25099;51.946;4.838;2022-09-02T07:11:07;7.03;;;1.58;;
39370;SDS011;25099;51.946;4.838;2022-09-02T07:13:44;1.85;;;1.58;;
39370;SDS011;25099;51.946;4.838;2022-09-02T07:16:09;3.45;;;1.70;;
39370;SDS011;25099;51.946;4.838;2022-09-02T07:18:35;5.78;;;1.90;;
39370;SDS011;25099;51.946;4.838;2022-09-02T07:21:01;2.25;;;1.65;;
39370;SDS011;25099;51.946;4.838;2022-09-02T07:23:27;9.02;;;2.42;;
39370;SDS011;25099;51.946;4.838;2022-09-02T07:25:52;3.33;;;1.73;;
39370;SDS011;25099;51.946;4.838;2022-09-02T07:28:20;2.92;;;1.90;;
39370;SDS011;25099;51.946;4.838;2022-09-02T07:30:46;4.07;;;1.75;;
39370;SDS011;25099;51.946;4.838;2022-09-02T07:33:12;3.40;;;1.88;;
39370;SDS011;25099;51.946;4.838;2022-09-02T07:35:40;10.88;;;2.40;;
39370;SDS011;25099;51.946;4.838;2022-09-02T07:38:06;2.80;;;1.83;;
39370;SDS011;25099;51.946;4.838;2022-09-02T07:40:33;3.33;;;1.48;;
39370;SDS011;25099;51.946;4.838;2022-09-02T07:43:00;4.45;;;1.92;;
39370;SDS011;25099;51.946;4.838;2022-09-02T07:45:30;6.22;;;2.00;;
39370;SDS011;25099;51.946;4.838;2022-09-02T07:47:56;2.63;;;1.58;;
39370;SDS011;25099;51.946;4.838;2022-09-02T07:50:22;5.15;;;1.60;;
39370;SDS011;25099;51.946;4.838;2022-09-02T07:52:51;2.80;;;1.90;;
39370;SDS011;25099;51.946;4.838;2022-09-02T07:55:18;2.58;;;2.20;;
39370;SDS011;25099;51.946;4.838;2022-09-02T07:57:45;3.78;;;1.88;;
39370;SDS011;25099;51.946;4.838;2022-09-02T08:00:12;1.90;;;1.77;;
39370;SDS011;25099;51.946;4.838;2022-09-02T08:02:38;3.55;;;2.17;;
39370;SDS011;25099;51.946;4.838;2022-09-02T08:05:04;3.83;;;1.98;;
39370;SDS011;25099;51.946;4.838;2022-09-02T08:07:30;3.53;;;2.60;;
39370;SDS011;25099;51.946;4.838;2022-09-02T08:09:56;2.17;;;1.90;;
39370;SDS011;25099;51.946;4.838;2022-09-02T08:12:24;2.25;;;1.90;;
39370;SDS011;25099;51.946;4.838;2022-09-02T08:14:51;2.97;;;1.60;;
39370;SDS011;25099;51.946;4.838;2022-09-02T08:17:20;3.38;;;1.83;;
39370;SDS011;25099;51.946;4.838;2022-09-02T08:19:46;4.47;;;2.28;;
39370;SDS011;25099;51.946;4.838;2022-09-02T08:22:11;12.70;;;3.03;;
39370;SDS011;25099;51.946;4.838;2022-09-02T08:24:38;4.47;;;1.90;;
39370;SDS011;25099;51.946;4.838;2022-09-02T08:27:04;2.30;;;2.10;;
39370;SDS011;25099;51.946;4.838;2022-09-02T08:29:30;4.00;;;2.00;;
39370;SDS011;25099;51.946;4.838;2022-09-02T08:31:55;3.72;;;1.92;;
39370;SDS011;25099;51.946;4.838;2022-09-02T08:34:21;7.28;;;2.42;;
39370;SDS011;25099;51.946;4.838;2022-09-02T08:36:47;4.13;;;2.63;;
39370;SDS011;25099;51.946;4.838;2022-09-02T08:39:12;5.85;;;2.15;;
39370;SDS011;25099;51.946;4.838;2022-09-02T08:41:44;2.55;;;2.35;;
39370;SDS011;25099;51.946;4.838;2022-09-02T08:44:22;4.53;;;2.38;;
39370;SDS011;25099;51.946;4.838;2022-09-02T08:46:52;2.67;;;2.13;;
39370;SDS011;25099;51.946;4.838;2022-09-02T08:49:27;6.32;;;2.67;;
39370;SDS011;25099;51.946;4.838;2022-09-02T08:51:58;6.75;;;2.28;;
39370;SDS011;25099;51.946;4.838;2022-09-02T08:54:36;7.43;;;2.20;;
39370;SDS011;25099;51.946;4.838;2022-09-02T08:57:15;2.20;;;2.03;;
39370;SDS011;25099;51.946;4.838;2022-09-02T08:59:42;4.93;;;2.22;;
39370;SDS011;25099;51.946;4.838;2022-09-02T09:10:20;2.90;;;2.38;;
39370;SDS011;25099;51.946;4.838;2022-09-02T09:12:58;5.05;;;2.42;;
39370;SDS011;25099;51.946;4.838;2022-09-02T09:18:12;3.83;;;2.30;;
39370;SDS011;25099;51.946;4.838;2022-09-02T09:20:43;3.22;;;2.42;;
39370;SDS011;25099;51.946;4.838;2022-09-02T09:25:52;12.38;;;3.47;;
39370;SDS011;25099;51.946;4.838;2022-09-02T09:28:29;4.85;;;2.67;;
39370;SDS011;25099;51.946;4.838;2022-09-02T09:30:55;6.05;;;2.80;;
39370;SDS011;25099;51.946;4.838;2022-09-02T09:33:24;8.48;;;2.53;;
39370;SDS011;25099;51.946;4.838;2022-09-02T09:35:53;4.20;;;2.50;;
39370;SDS011;25099;51.946;4.838;2022-09-02T09:38:27;7.45;;;2.30;;
39370;SDS011;25099;51.946;4.838;2022-09-02T09:41:13;7.50;;;2.72;;
39370;SDS011;25099;51.946;4.838;2022-09-02T09:43:44;4.40;;;2.60;;
39370;SDS011;25099;51.946;4.838;2022-09-02T09:46:20;3.47;;;2.60;;
39370;SDS011;25099;51.946;4.838;2022-09-02T09:48:54;4.05;;;2.15;;
39370;SDS011;25099;51.946;4.838;2022-09-02T09:51:20;5.43;;;2.17;;
39370;SDS011;25099;51.946;4.838;2022-09-02T09:53:45;4.35;;;2.83;;
39370;SDS011;25099;51.946;4.838;2022-09-02T10:03:57;3.72;;;2.58;;
39370;SDS011;25099;51.946;4.838;2022-09-02T10:08:57;4.68;;;2.60;;
39370;SDS011;25099;51.946;4.838;2022-09-02T10:11:28;8.55;;;2.85;;
39370;SDS011;25099;51.946;4.838;2022-09-02T10:13:59;7.03;;;2.78;;
39370;SDS011;25099;51.946;4.838;2022-09-02T10:27:15;3.75;;;2.42;;
39370;SDS011;25099;51.946;4.838;2022-09-02T10:29:53;8.27;;;2.83;;
39370;SDS011;25099;51.946;4.838;2022-09-02T10:33:01;5.25;;;2.80;;
39370;SDS011;25099;51.946;4.838;2022-09-02T10:35:39;3.63;;;2.50;;
39370;SDS011;25099;51.946;4.838;2022-09-02T10:43:59;4.95;;;2.67;;
39370;SDS011;25099;51.946;4.838;2022-09-02T10:46:52;4.68;;;2.60;;
39370;SDS011;25099;51.946;4.838;2022-09-02T10:52:28;5.13;;;3.30;;
39370;SDS011;25099;51.946;4.838;2022-09-02T10:55:36;6.75;;;2.75;;
39370;SDS011;25099;51.946;4.838;2022-09-02T10:58:41;7.88;;;3.00;;
39370;SDS011;25099;51.946;4.838;2022-09-02T11:01:21;5.15;;;2.88;;
39370;SDS011;25099;51.946;4.838;2022-09-02T11:04:00;5.32;;;3.08;;
39370;SDS011;25099;51.946;4.838;2022-09-02T11:06:46;7.10;;;2.20;;
39370;SDS011;25099;51.946;4.838;2022-09-02T11:09:35;7.10;;;3.00;;
39370;SDS011;25099;51.946;4.838;2022-09-02T11:12:10;5.15;;;3.40;;
39370;SDS011;25099;51.946;4.838;2022-09-02T11:22:59;7.50;;;3.33;;
39370;SDS011;25099;51.946;4.838;2022-09-02T11:25:51;9.32;;;2.50;;
39370;SDS011;25099;51.946;4.838;2022-09-02T11:36:40;3.30;;;2.58;;
39370;SDS011;25099;51.946;4.838;2022-09-02T11:41:37;5.72;;;2.50;;
39370;SDS011;25099;51.946;4.838;2022-09-02T11:47:01;5.30;;;3.05;;
39370;SDS011;25099;51.946;4.838;2022-09-02T11:55:41;5.22;;;1.90;;
39370;SDS011;25099;51.946;4.838;2022-09-02T11:58:11;13.43;;;3.45;;
39370;SDS011;25099;51.946;4.838;2022-09-02T12:00:59;3.05;;;2.10;;
39370;SDS011;25099;51.946;4.838;2022-09-02T12:04:05;4.63;;;2.35;;
39370;SDS011;25099;51.946;4.838;2022-09-02T12:17:43;12.88;;;2.72;;
39370;SDS011;25099;51.946;4.838;2022-09-02T12:23:06;5.63;;;2.70;;
39370;SDS011;25099;51.946;4.838;2022-09-02T12:26:04;8.57;;;1.98;;
39370;SDS011;25099;51.946;4.838;2022-09-02T12:28:30;9.25;;;2.42;;
39370;SDS011;25099;51.946;4.838;2022-09-02T12:35:56;7.37;;;2.33;;
39370;SDS011;25099;51.946;4.838;2022-09-02T12:43:43;3.47;;;2.00;;
39370;SDS011;25099;51.946;4.838;2022-09-02T12:54:46;7.53;;;2.30;;
39370;SDS011;25099;51.946;4.838;2022-09-02T12:57:13;2.13;;;1.92;;
39370;SDS011;25099;51.946;4.838;2022-09-02T12:59:43;4.15;;;2.45;;
39370;SDS011;25099;51.946;4.838;2022-09-02T13:08:06;5.95;;;2.42;;
39370;SDS011;25099;51.946;4.838;2022-09-02T13:13:51;4.80;;;2.08;;
39370;SDS011;25099;51.946;4.838;2022-09-02T13:16:27;5.43;;;2.08;;
39370;SDS011;25099;51.946;4.838;2022-09-02T13:27:52;4.60;;;1.90;;
39370;SDS011;25099;51.946;4.838;2022-09-02T13:33:37;2.25;;;2.05;;
39370;SDS011;25099;51.946;4.838;2022-09-02T13:36:02;3.92;;;1.85;;
39370;SDS011;25099;51.946;4.838;2022-09-02T13:38:29;4.70;;;2.10;;
39370;SDS011;25099;51.946;4.838;2022-09-02T13:40:55;3.92;;;2.17;;
39370;SDS011;25099;51.946;4.838;2022-09-02T13:43:22;3.90;;;2.03;;
39370;SDS011;25099;51.946;4.838;2022-09-02T13:45:50;3.47;;;1.80;;
39370;SDS011;25099;51.946;4.838;2022-09-02T13:48:19;2.60;;;2.20;;
39370;SDS011;25099;51.946;4.838;2022-09-02T13:50:48;1.70;;;1.60;;
39370;SDS011;25099;51.946;4.838;2022-09-02T13:53:31;2.42;;;1.95;;
39370;SDS011;25099;51.946;4.838;2022-09-02T13:56:06;2.65;;;1.75;;
39370;SDS011;25099;51.946;4.838;2022-09-02T13:58:41;4.88;;;2.30;;
39370;SDS011;25099;51.946;4.838;2022-09-02T14:01:16;3.88;;;1.70;;
39370;SDS011;25099;51.946;4.838;2022-09-02T14:03:56;2.20;;;1.98;;
39370;SDS011;25099;51.946;4.838;2022-09-02T14:06:24;7.07;;;2.42;;
39370;SDS011;25099;51.946;4.838;2022-09-02T14:09:01;3.47;;;1.60;;
39370;SDS011;25099;51.946;4.838;2022-09-02T14:11:32;2.45;;;2.25;;
39370;SDS011;25099;51.946;4.838;2022-09-02T14:14:07;2.83;;;1.95;;
39370;SDS011;25099;51.946;4.838;2022-09-02T14:16:37;2.22;;;1.80;;
39370;SDS011;25099;51.946;4.838;2022-09-02T14:19:09;3.33;;;1.65;;
39370;SDS011;25099;51.946;4.838;2022-09-02T14:21:48;6.57;;;1.90;;
39370;SDS011;25099;51.946;4.838;2022-09-02T14:24:21;1.90;;;1.40;;
39370;SDS011;25099;51.946;4.838;2022-09-02T14:26:57;1.67;;;1.50;;
39370;SDS011;25099;51.946;4.838;2022-09-02T14:29:25;4.65;;;1.92;;
39370;SDS011;25099;51.946;4.838;2022-09-02T14:34:44;3.33;;;1.48;;
39370;SDS011;25099;51.946;4.838;2022-09-02T14:40:01;1.63;;;1.35;;
39370;SDS011;25099;51.946;4.838;2022-09-02T14:42:32;6.32;;;1.55;;
39370;SDS011;25099;51.946;4.838;2022-09-02T14:44:58;4.03;;;1.77;;
39370;SDS011;25099;51.946;4.838;2022-09-02T14:47:27;3.58;;;1.90;;
39370;SDS011;25099;51.946;4.838;2022-09-02T14:49:53;1.65;;;1.55;;
39370;SDS011;25099;51.946;4.838;2022-09-02T14:52:20;3.70;;;1.60;;
39370;SDS011;25099;51.946;4.838;2022-09-02T14:54:54;4.57;;;1.50;;
39370;SDS011;25099;51.946;4.838;2022-09-02T14:57:22;1.70;;;1.60;;
39370;SDS011;25099;51.946;4.838;2022-09-02T14:59:59;2.03;;;1.85;;
39370;SDS011;25099;51.946;4.838;2022-09-02T15:02:35;2.22;;;1.73;;
39370;SDS011;25099;51.946;4.838;2022-09-02T15:05:04;5.65;;;1.90;;
39370;SDS011;25099;51.946;4.838;2022-09-02T15:07:35;7.38;;;1.90;;
39370;SDS011;25099;51.946;4.838;2022-09-02T15:10:01;2.88;;;1.60;;
39370;SDS011;25099;51.946;4.838;2022-09-02T15:12:29;6.72;;;1.88;;
39370;SDS011;25099;51.946;4.838;2022-09-02T15:14:57;2.88;;;2.05;;
39370;SDS011;25099;51.946;4.838;2022-09-02T15:17:23;1.95;;;1.63;;
39370;SDS011;25099;51.946;4.838;2022-09-02T15:19:49;7.43;;;1.60;;
39370;SDS011;25099;51.946;4.838;2022-09-02T15:22:15;3.03;;;1.50;;
39370;SDS011;25099;51.946;4.838;2022-09-02T15:24:41;2.55;;;1.60;;
39370;SDS011;25099;51.946;4.838;2022-09-02T15:27:08;3.30;;;1.48;;
39370;SDS011;25099;51.946;4.838;2022-09-02T15:29:34;3.60;;;1.77;;
39370;SDS011;25099;51.946;4.838;2022-09-02T15:32:00;1.88;;;1.40;;
39370;SDS011;25099;51.946;4.838;2022-09-02T15:34:27;2.78;;;1.45;;
39370;SDS011;25099;51.946;4.838;2022-09-02T15:36:53;2.15;;;1.73;;
39370;SDS011;25099;51.946;4.838;2022-09-02T15:39:22;2.85;;;1.85;;
39370;SDS011;25099;51.946;4.838;2022-09-02T15:41:49;10.48;;;1.77;;
39370;SDS011;25099;51.946;4.838;2022-09-02T15:44:16;2.13;;;1.45;;
39370;SDS011;25099;51.946;4.838;2022-09-02T15:46:42;1.92;;;1.67;;
39370;SDS011;25099;51.946;4.838;2022-09-02T15:49:09;2.75;;;1.90;;
39370;SDS011;25099;51.946;4.838;2022-09-02T15:51:36;2.08;;;1.25;;
39370;SDS011;25099;51.946;4.838;2022-09-02T15:54:07;2.10;;;1.65;;
39370;SDS011;25099;51.946;4.838;2022-09-02T15:56:36;3.28;;;1.30;;
39370;SDS011;25099;51.946;4.838;2022-09-02T15:59:07;1.55;;;1.45;;
39370;SDS011;25099;51.946;4.838;2022-09-02T16:01:39;1.48;;;1.30;;
39370;SDS011;25099;51.946;4.838;2022-09-02T16:04:09;1.88;;;1.38;;
39370;SDS011;25099;51.946;4.838;2022-09-02T16:06:37;4.80;;;1.40;;
39370;SDS011;25099;51.946;4.838;2022-09-02T16:09:04;2.63;;;1.20;;
39370;SDS011;25099;51.946;4.838;2022-09-02T16:11:31;4.53;;;1.55;;
39370;SDS011;25099;51.946;4.838;2022-09-02T16:13:57;2.13;;;1.30;;
39370;SDS011;25099;51.946;4.838;2022-09-02T16:16:23;1.50;;;1.40;;
39370;SDS011;25099;51.946;4.838;2022-09-02T16:18:50;4.65;;;1.50;;
39370;SDS011;25099;51.946;4.838;2022-09-02T16:21:17;1.38;;;1.25;;
39370;SDS011;25099;51.946;4.838;2022-09-02T16:23:43;2.63;;;1.40;;
39370;SDS011;25099;51.946;4.838;2022-09-02T16:26:13;4.72;;;1.85;;
39370;SDS011;25099;51.946;4.838;2022-09-02T16:28:42;3.83;;;1.77;;
39370;SDS011;25099;51.946;4.838;2022-09-02T16:31:10;1.75;;;1.52;;
39370;SDS011;25099;51.946;4.838;2022-09-02T16:33:37;2.03;;;1.85;;
39370;SDS011;25099;51.946;4.838;2022-09-02T16:36:04;4.53;;;1.80;;
39370;SDS011;25099;51.946;4.838;2022-09-02T16:38:30;2.08;;;1.67;;
39370;SDS011;25099;51.946;4.838;2022-09-02T16:40:59;4.43;;;1.60;;
39370;SDS011;25099;51.946;4.838;2022-09-02T16:43:25;7.75;;;1.95;;
39370;SDS011;25099;51.946;4.838;2022-09-02T16:45:53;3.90;;;1.63;;
39370;SDS011;25099;51.946;4.838;2022-09-02T16:48:20;2.58;;;1.90;;
39370;SDS011;25099;51.946;4.838;2022-09-02T16:50:47;4.85;;;1.50;;
39370;SDS011;25099;51.946;4.838;2022-09-02T16:53:13;2.03;;;1.65;;
39370;SDS011;25099;51.946;4.838;2022-09-02T16:55:43;3.92;;;1.65;;
39370;SDS011;25099;51.946;4.838;2022-09-02T16:58:13;2.03;;;1.83;;
39370;SDS011;25099;51.946;4.838;2022-09-02T17:00:40;1.58;;;1.48;;
39370;SDS011;25099;51.946;4.838;2022-09-02T17:03:06;3.47;;;2.28;;
39370;SDS011;25099;51.946;4.838;2022-09-02T17:05:33;5.75;;;1.95;;
39370;SDS011;25099;51.946;4.838;2022-09-02T17:07:59;3.15;;;2.05;;
39370;SDS011;25099;51.946;4.838;2022-09-02T17:10:26;3.50;;;1.80;;
39370;SDS011;25099;51.946;4.838;2022-09-02T17:12:53;2.55;;;1.52;;